createdAt,value
2022-08-22T00:00:45.869Z,67.57
2022-08-22T00:01:45.881Z,68.11
2022-08-22T00:02:42.244Z,49.68
2022-08-22T00:02:44.178Z,61.43
2022-08-22T00:02:44.327Z,60.57
2022-08-22T00:02:45.443Z,51.82
2022-08-22T00:02:46.808Z,60.12
2022-08-22T00:02:48.332Z,52.64
2022-08-22T00:02:48.934Z,54.60
2022-08-22T00:02:49.119Z,56.48
2022-08-22T00:02:56.170Z,48.41
2022-08-22T00:03:08.535Z,58.73
2022-08-22T00:03:08.735Z,63.29
2022-08-22T00:03:09.681Z,61.10
2022-08-22T00:03:15.861Z,68.24
2022-08-22T00:03:47.803Z,69.68
2022-08-22T00:04:45.804Z,70.32
2022-08-22T00:05:45.825Z,70.62
2022-08-22T00:06:45.803Z,70.89
2022-08-22T00:07:45.834Z,70.29
2022-08-22T00:08:45.764Z,70.29
2022-08-22T00:09:45.770Z,70.19
2022-08-22T00:10:45.739Z,70.69
2022-08-22T00:11:45.759Z,70.29
2022-08-22T00:12:45.727Z,70.29
2022-08-22T00:13:45.695Z,69.89
2022-08-22T00:14:45.703Z,69.79
2022-08-22T00:15:45.687Z,69.99
2022-08-22T00:16:45.707Z,70.09
2022-08-22T00:17:45.676Z,70.36
2022-08-22T00:18:45.674Z,70.46
2022-08-22T00:19:45.651Z,70.29
2022-08-22T00:20:45.659Z,69.89
2022-08-22T00:21:45.664Z,70.62
2022-08-22T00:22:45.596Z,70.62
2022-08-22T00:23:45.595Z,70.89
2022-08-22T00:24:45.640Z,70.79
2022-08-22T00:25:45.584Z,71.13
2022-08-22T00:26:45.853Z,71.23
2022-08-22T00:27:45.593Z,71.53
2022-08-22T00:28:45.544Z,71.60
2022-08-22T00:29:45.541Z,71.60
2022-08-22T00:30:45.532Z,71.84
2022-08-22T00:31:45.536Z,71.53
2022-08-22T00:32:45.597Z,71.94
2022-08-22T00:33:45.489Z,71.97
2022-08-22T00:34:45.500Z,72.91
2022-08-22T00:35:45.493Z,72.88
2022-08-22T00:36:47.791Z,72.78
2022-08-22T00:37:45.468Z,72.75
2022-08-22T00:38:45.569Z,72.75
2022-08-22T00:39:45.498Z,71.84
2022-08-22T00:40:45.441Z,71.84
2022-08-22T00:41:45.425Z,71.44
2022-08-22T00:42:45.392Z,71.13
2022-08-22T00:43:45.437Z,71.33
2022-08-22T00:44:45.464Z,71.67
2022-08-22T00:45:45.373Z,71.77
2022-08-22T00:46:45.382Z,72.17
2022-08-22T00:47:45.364Z,72.27
2022-08-22T00:48:45.366Z,72.81
2022-08-22T00:49:45.333Z,72.61
2022-08-22T00:50:45.313Z,72.75
2022-08-22T00:51:45.312Z,72.64
2022-08-22T00:52:45.357Z,72.91
2022-08-22T00:53:45.355Z,72.41
2022-08-22T00:54:45.272Z,72.61
2022-08-22T00:55:45.249Z,72.51
2022-08-22T00:56:46.021Z,71.91
2022-08-22T00:57:45.231Z,72.31
2022-08-22T00:58:45.218Z,72.51
2022-08-22T00:59:45.229Z,72.61
2022-08-22T01:00:45.206Z,72.41
2022-08-22T01:01:45.205Z,72.41
2022-08-22T01:02:49.182Z,72.61
2022-08-22T01:03:46.173Z,72.00
2022-08-22T01:04:45.192Z,71.91
2022-08-22T01:05:45.144Z,72.21
2022-08-22T01:06:45.137Z,71.70
2022-08-22T01:07:45.123Z,71.91
2022-08-22T01:08:45.115Z,71.91
2022-08-22T01:09:45.097Z,72.21
2022-08-22T01:10:45.131Z,72.61
2022-08-22T01:11:45.086Z,72.41
2022-08-22T01:12:45.061Z,72.44
2022-08-22T01:13:45.046Z,72.75
2022-08-22T01:14:45.038Z,72.95
2022-08-22T01:15:45.046Z,72.95
2022-08-22T01:16:45.058Z,72.85
2022-08-22T01:17:45.007Z,72.51
2022-08-22T01:18:45.049Z,72.31
2022-08-22T01:19:44.979Z,71.97
2022-08-22T01:20:44.982Z,71.77
2022-08-22T01:21:44.972Z,71.37
2022-08-22T01:22:44.966Z,71.47
2022-08-22T01:23:44.924Z,71.80
2022-08-22T01:24:44.983Z,72.11
2022-08-22T01:25:44.912Z,72.85
2022-08-22T01:26:44.932Z,73.59
2022-08-22T01:27:44.898Z,74.19
2022-08-22T01:28:44.917Z,74.80
2022-08-22T01:29:44.882Z,75.45
2022-08-22T01:30:44.871Z,75.95
2022-08-22T01:31:44.854Z,75.95
2022-08-22T01:32:44.858Z,75.41
2022-08-22T01:33:44.822Z,75.34
2022-08-22T01:34:44.816Z,75.41
2022-08-22T01:35:44.835Z,74.33
2022-08-22T01:36:44.810Z,74.50
2022-08-22T01:37:44.771Z,74.57
2022-08-22T01:38:44.787Z,73.46
2022-08-22T01:39:44.765Z,73.25
2022-08-22T01:40:54.022Z,73.66
2022-08-22T01:41:45.774Z,73.46
2022-08-22T01:42:44.719Z,72.95
2022-08-22T01:43:59.045Z,73.15
2022-08-22T01:44:45.711Z,72.95
2022-08-22T01:45:44.716Z,73.55
2022-08-22T01:46:44.722Z,73.46
2022-08-22T01:47:44.722Z,73.05
2022-08-22T01:48:44.643Z,72.75
2022-08-22T01:49:44.648Z,72.81
2022-08-22T01:50:44.619Z,72.44
2022-08-22T01:51:44.691Z,71.91
2022-08-22T01:52:44.601Z,72.51
2022-08-22T01:53:44.612Z,72.64
2022-08-22T01:54:44.588Z,73.25
2022-08-22T01:55:45.303Z,74.19
2022-08-22T01:56:44.554Z,73.08
2022-08-22T01:57:44.575Z,73.25
2022-08-22T01:58:44.539Z,73.90
2022-08-22T01:59:44.515Z,73.28
2022-08-22T02:00:44.559Z,73.15
2022-08-22T02:01:44.508Z,73.96
2022-08-22T02:02:44.521Z,73.39
2022-08-22T02:03:44.508Z,73.79
2022-08-22T02:04:44.456Z,74.70
2022-08-22T02:05:44.469Z,74.70
2022-08-22T02:06:44.476Z,73.90
2022-08-22T02:07:44.460Z,74.33
2022-08-22T02:08:44.437Z,74.63
2022-08-22T02:09:44.444Z,75.48
2022-08-22T02:10:44.409Z,75.24
2022-08-22T02:11:44.394Z,75.58
2022-08-22T02:12:45.280Z,75.65
2022-08-22T02:13:44.373Z,75.45
2022-08-22T02:14:44.440Z,75.55
2022-08-22T02:15:44.340Z,75.14
2022-08-22T02:16:44.340Z,74.63
2022-08-22T02:17:45.317Z,74.84
2022-08-22T02:18:44.320Z,74.84
2022-08-22T02:19:44.313Z,74.74
2022-08-22T02:20:44.292Z,74.33
2022-08-22T02:21:44.274Z,74.54
2022-08-22T02:22:44.593Z,73.83
2022-08-22T02:23:44.289Z,73.69
2022-08-22T02:24:44.241Z,74.10
2022-08-22T02:25:44.236Z,74.70
2022-08-22T02:26:44.239Z,74.33
2022-08-22T02:27:44.196Z,74.63
2022-08-22T02:28:57.466Z,74.84
2022-08-22T02:29:45.182Z,74.84
2022-08-22T02:30:44.169Z,75.28
2022-08-22T02:31:44.177Z,74.63
2022-08-22T02:32:44.144Z,74.43
2022-08-22T02:33:44.146Z,74.63
2022-08-22T02:34:44.172Z,74.63
2022-08-22T02:35:44.110Z,75.04
2022-08-22T02:36:44.096Z,75.24
2022-08-22T02:37:44.098Z,74.90
2022-08-22T02:38:44.072Z,74.70
2022-08-22T02:39:44.133Z,74.30
2022-08-22T02:40:44.069Z,74.70
2022-08-22T02:41:44.037Z,74.50
2022-08-22T02:42:44.018Z,73.90
2022-08-22T02:43:44.038Z,74.50
2022-08-22T02:44:44.778Z,74.23
2022-08-22T02:45:44.035Z,73.72
2022-08-22T02:46:43.978Z,74.23
2022-08-22T02:47:43.981Z,74.03
2022-08-22T02:48:43.966Z,74.63
2022-08-22T02:49:44.170Z,75.18
2022-08-22T02:50:43.946Z,74.98
2022-08-22T02:51:43.970Z,75.38
2022-08-22T02:52:43.911Z,75.07
2022-08-22T02:53:43.910Z,74.67
2022-08-22T02:54:43.903Z,74.98
2022-08-22T02:55:43.935Z,74.87
2022-08-22T02:56:43.872Z,74.84
2022-08-22T02:57:43.865Z,74.63
2022-08-22T02:58:43.835Z,75.07
2022-08-22T02:59:43.855Z,74.77
2022-08-22T03:00:43.904Z,74.57
2022-08-22T03:01:44.615Z,74.98
2022-08-22T03:02:43.802Z,74.67
2022-08-22T03:03:43.771Z,74.77
2022-08-22T03:04:43.774Z,74.67
2022-08-22T03:05:43.751Z,74.87
2022-08-22T03:06:43.750Z,74.77
2022-08-22T03:07:43.775Z,74.47
2022-08-22T03:08:47.452Z,74.67
2022-08-22T03:09:45.227Z,74.67
2022-08-22T03:10:43.685Z,74.60
2022-08-22T03:11:43.676Z,75.21
2022-08-22T03:12:43.664Z,75.11
2022-08-22T03:13:43.688Z,75.52
2022-08-22T03:14:43.647Z,75.21
2022-08-22T03:15:48.531Z,75.28
2022-08-22T03:16:44.628Z,74.60
2022-08-22T03:17:43.611Z,74.60
2022-08-22T03:18:43.630Z,75.11
2022-08-22T03:19:44.264Z,74.81
2022-08-22T03:20:44.635Z,75.01
2022-08-22T03:21:43.567Z,75.01
2022-08-22T03:22:43.544Z,75.21
2022-08-22T03:23:43.527Z,76.06
2022-08-22T03:24:43.547Z,75.72
2022-08-22T03:25:44.312Z,75.52
2022-08-22T03:26:43.504Z,75.62
2022-08-22T03:27:46.176Z,75.45
2022-08-22T03:28:54.412Z,75.52
2022-08-22T03:29:44.487Z,75.62
2022-08-22T03:30:43.456Z,75.11
2022-08-22T03:31:43.460Z,75.21
2022-08-22T03:32:43.478Z,75.21
2022-08-22T03:33:43.450Z,74.71
2022-08-22T03:34:43.408Z,74.51
2022-08-22T03:35:43.416Z,74.71
2022-08-22T03:36:43.417Z,74.71
2022-08-22T03:37:44.272Z,74.51
2022-08-22T03:38:43.372Z,74.71
2022-08-22T03:39:43.455Z,75.25
2022-08-22T03:40:43.345Z,74.51
2022-08-22T03:41:43.471Z,75.01
2022-08-22T03:42:43.330Z,74.84
2022-08-22T03:43:43.302Z,75.15
2022-08-22T03:44:43.318Z,75.62
2022-08-22T03:45:43.280Z,75.55
2022-08-22T03:46:43.272Z,75.45
2022-08-22T03:47:43.271Z,75.35
2022-08-22T03:48:43.245Z,75.31
2022-08-22T03:49:43.234Z,74.60
2022-08-22T03:50:43.229Z,74.64
2022-08-22T03:51:43.221Z,74.24
2022-08-22T03:52:43.181Z,74.04
2022-08-22T03:53:44.180Z,73.93
2022-08-22T03:54:43.182Z,74.04
2022-08-22T03:55:43.158Z,73.73
2022-08-22T03:56:43.138Z,75.18
2022-08-22T03:57:43.154Z,74.64
2022-08-22T03:58:43.139Z,74.64
2022-08-22T03:59:43.105Z,74.57
2022-08-22T04:00:43.141Z,75.08
2022-08-22T04:01:43.096Z,74.98
2022-08-22T04:02:44.358Z,74.98
2022-08-22T04:03:44.062Z,75.49
2022-08-22T04:04:43.115Z,76.13
2022-08-22T04:05:43.044Z,76.33
2022-08-22T04:06:43.038Z,76.13
2022-08-22T04:07:43.010Z,76.13
2022-08-22T04:08:44.848Z,76.29
2022-08-22T04:09:43.010Z,76.29
2022-08-22T04:10:43.018Z,76.13
2022-08-22T04:11:42.977Z,75.89
2022-08-22T04:12:42.954Z,75.79
2022-08-22T04:13:43.005Z,76.33
2022-08-22T04:14:42.929Z,76.13
2022-08-22T04:15:42.961Z,77.14
2022-08-22T04:16:42.930Z,77.75
2022-08-22T04:17:42.890Z,77.75
2022-08-22T04:18:42.891Z,77.69
2022-08-22T04:19:42.886Z,77.52
2022-08-22T04:20:42.908Z,78.13
2022-08-22T04:21:42.858Z,77.93
2022-08-22T04:22:42.847Z,78.33
2022-08-22T04:23:42.847Z,79.14
2022-08-22T04:24:42.816Z,78.53
2022-08-22T04:25:42.873Z,78.44
2022-08-22T04:26:43.274Z,78.44
2022-08-22T04:27:42.870Z,78.64
2022-08-22T04:28:43.767Z,79.45
2022-08-22T04:29:42.779Z,78.94
2022-08-22T04:30:42.755Z,79.35
2022-08-22T04:31:42.758Z,79.45
2022-08-22T04:32:42.744Z,79.35
2022-08-22T04:33:42.715Z,79.75
2022-08-22T04:34:42.728Z,80.40
2022-08-22T04:35:42.696Z,80.80
2022-08-22T04:36:42.707Z,81.01
2022-08-22T04:37:42.704Z,80.66
2022-08-22T04:38:42.696Z,80.57
2022-08-22T04:39:42.663Z,80.57
2022-08-22T04:40:42.655Z,80.66
2022-08-22T04:41:42.659Z,80.57
2022-08-22T04:42:42.636Z,80.87
2022-08-22T04:43:42.614Z,80.57
2022-08-22T04:44:42.686Z,81.41
2022-08-22T04:45:42.595Z,81.41
2022-08-22T04:46:42.635Z,81.18
2022-08-22T04:47:42.596Z,80.87
2022-08-22T04:48:42.579Z,80.57
2022-08-22T04:49:42.539Z,80.66
2022-08-22T04:50:43.361Z,80.57
2022-08-22T04:51:43.540Z,80.97
2022-08-22T04:52:42.544Z,80.97
2022-08-22T04:53:42.503Z,80.97
2022-08-22T04:54:42.490Z,81.38
2022-08-22T04:55:42.482Z,81.48
2022-08-22T04:56:42.459Z,80.97
2022-08-22T04:57:42.473Z,81.04
2022-08-22T04:58:42.504Z,80.73
2022-08-22T04:59:42.442Z,80.77
2022-08-22T05:00:42.432Z,81.07
2022-08-22T05:01:42.447Z,81.07
2022-08-22T05:02:42.399Z,81.78
2022-08-22T05:03:45.030Z,81.38
2022-08-22T05:04:43.372Z,81.13
2022-08-22T05:05:42.372Z,81.27
2022-08-22T05:06:42.359Z,81.34
2022-08-22T05:07:42.339Z,81.04
2022-08-22T05:08:42.307Z,81.18
2022-08-22T05:09:42.343Z,80.43
2022-08-22T05:10:42.316Z,80.02
2022-08-22T05:11:42.301Z,80.43
2022-08-22T05:12:42.281Z,80.53
2022-08-22T05:13:42.270Z,80.43
2022-08-22T05:14:42.283Z,80.73
2022-08-22T05:15:43.167Z,80.63
2022-08-22T05:16:42.243Z,80.12
2022-08-22T05:17:42.232Z,80.32
2022-08-22T05:18:42.225Z,80.43
2022-08-22T05:19:42.220Z,80.19
2022-08-22T05:20:42.200Z,80.63
2022-08-22T05:21:42.188Z,81.04
2022-08-22T05:22:42.212Z,80.83
2022-08-22T05:23:42.144Z,80.49
2022-08-22T05:24:42.156Z,80.53
2022-08-22T05:25:42.140Z,80.59
2022-08-22T05:26:42.151Z,80.39
2022-08-22T05:27:42.670Z,80.39
2022-08-22T05:28:42.104Z,79.54
2022-08-22T05:29:42.111Z,79.64
2022-08-22T05:30:42.095Z,79.44
2022-08-22T05:31:42.055Z,78.59
2022-08-22T05:32:42.078Z,78.89
2022-08-22T05:33:42.741Z,78.49
2022-08-22T05:34:42.031Z,78.08
2022-08-22T05:35:44.949Z,77.44
2022-08-22T05:36:43.006Z,78.25
2022-08-22T05:37:42.008Z,77.34
2022-08-22T05:38:41.996Z,77.50
2022-08-22T05:39:42.782Z,77.40
2022-08-22T05:40:41.993Z,77.40
2022-08-22T05:41:41.940Z,77.06
2022-08-22T05:42:41.943Z,76.97
2022-08-22T05:43:41.957Z,76.97
2022-08-22T05:44:41.907Z,76.97
2022-08-22T05:45:41.933Z,77.17
2022-08-22T05:46:41.896Z,76.97
2022-08-22T05:47:41.861Z,77.17
2022-08-22T05:48:41.877Z,76.86
2022-08-22T05:49:41.878Z,77.03
2022-08-22T05:50:41.869Z,77.03
2022-08-22T05:51:41.824Z,76.52
2022-08-22T05:52:42.736Z,75.71
2022-08-22T05:53:41.812Z,75.71
2022-08-22T05:54:41.804Z,75.92
2022-08-22T05:55:41.808Z,75.71
2022-08-22T05:56:41.763Z,75.92
2022-08-22T05:57:41.753Z,75.98
2022-08-22T05:58:42.260Z,75.98
2022-08-22T05:59:41.728Z,76.08
2022-08-22T06:00:41.729Z,75.68
2022-08-22T06:01:41.811Z,75.07
2022-08-22T06:02:41.705Z,75.24
2022-08-22T06:03:41.693Z,75.24
2022-08-22T06:04:41.686Z,75.24
2022-08-22T06:05:41.662Z,75.13
2022-08-22T06:06:41.678Z,75.24
2022-08-22T06:07:41.657Z,75.34
2022-08-22T06:08:41.634Z,75.24
2022-08-22T06:09:41.626Z,75.68
2022-08-22T06:10:41.600Z,75.64
2022-08-22T06:11:41.622Z,75.74
2022-08-22T06:12:43.067Z,75.44
2022-08-22T06:13:41.743Z,75.95
2022-08-22T06:14:41.570Z,75.44
2022-08-22T06:15:41.531Z,75.13
2022-08-22T06:16:47.498Z,74.93
2022-08-22T06:17:42.542Z,75.40
2022-08-22T06:18:41.526Z,74.60
2022-08-22T06:19:42.498Z,74.60
2022-08-22T06:20:41.481Z,74.60
2022-08-22T06:21:41.478Z,74.60
2022-08-22T06:22:41.541Z,73.85
2022-08-22T06:23:41.451Z,73.75
2022-08-22T06:24:41.433Z,73.65
2022-08-22T06:25:41.428Z,74.16
2022-08-22T06:26:41.421Z,73.96
2022-08-22T06:27:41.430Z,73.85
2022-08-22T06:28:55.051Z,73.45
2022-08-22T06:29:42.369Z,72.91
2022-08-22T06:30:41.361Z,73.32
2022-08-22T06:31:41.353Z,73.52
2022-08-22T06:32:59.407Z,73.72
2022-08-22T06:33:45.749Z,73.28
2022-08-22T06:34:42.328Z,72.67
2022-08-22T06:35:41.282Z,72.58
2022-08-22T06:36:41.283Z,73.28
2022-08-22T06:37:41.285Z,73.28
2022-08-22T06:38:41.294Z,73.58
2022-08-22T06:39:41.262Z,73.58
2022-08-22T06:40:41.258Z,73.48
2022-08-22T06:41:41.238Z,73.52
2022-08-22T06:42:41.219Z,72.98
2022-08-22T06:43:41.218Z,72.78
2022-08-22T06:44:41.235Z,73.08
2022-08-22T06:45:41.206Z,73.28
2022-08-22T06:46:41.803Z,73.48
2022-08-22T06:47:41.178Z,73.79
2022-08-22T06:48:41.176Z,73.48
2022-08-22T06:49:41.142Z,73.25
2022-08-22T06:50:41.150Z,73.25
2022-08-22T06:51:41.116Z,73.95
2022-08-22T06:52:41.107Z,73.52
2022-08-22T06:53:47.922Z,73.52
2022-08-22T06:54:42.106Z,72.61
2022-08-22T06:55:41.075Z,72.61
2022-08-22T06:56:41.154Z,73.35
2022-08-22T06:57:41.051Z,73.72
2022-08-22T06:58:41.055Z,72.91
2022-08-22T06:59:42.110Z,72.41
2022-08-22T07:00:42.630Z,72.00
2022-08-22T07:01:41.122Z,71.77
2022-08-22T07:02:41.017Z,72.00
2022-08-22T07:03:41.064Z,71.36
2022-08-22T07:04:41.043Z,71.56
2022-08-22T07:05:40.979Z,71.16
2022-08-22T07:06:40.972Z,71.67
2022-08-22T07:07:41.014Z,71.56
2022-08-22T07:08:41.059Z,71.23
2022-08-22T07:09:41.084Z,71.03
2022-08-22T07:10:42.719Z,71.20
2022-08-22T07:11:41.076Z,71.09
2022-08-22T07:12:42.399Z,70.39
2022-08-22T07:13:42.224Z,71.20
2022-08-22T07:14:40.897Z,70.79
2022-08-22T07:15:41.744Z,70.19
2022-08-22T07:16:40.839Z,69.85
2022-08-22T07:17:40.827Z,69.96
2022-08-22T07:18:40.803Z,70.06
2022-08-22T07:19:40.840Z,69.85
2022-08-22T07:20:41.753Z,69.25
2022-08-22T07:21:40.800Z,68.12
2022-08-22T07:22:42.093Z,67.31
2022-08-22T07:23:40.768Z,67.01
2022-08-22T07:24:40.776Z,66.11
2022-08-22T07:25:40.728Z,66.61
2022-08-22T07:26:40.786Z,67.08
2022-08-22T07:27:40.742Z,66.38
2022-08-22T07:28:51.092Z,68.08
2022-08-22T07:29:41.704Z,67.35
2022-08-22T07:30:41.271Z,66.24
2022-08-22T07:31:40.696Z,65.91
2022-08-22T07:32:40.713Z,65.38
2022-08-22T07:33:41.604Z,64.54
2022-08-22T07:34:40.754Z,63.64
2022-08-22T07:35:40.675Z,63.31
2022-08-22T07:36:40.680Z,63.08
2022-08-22T07:37:40.628Z,62.78
2022-08-22T07:38:40.625Z,62.18
2022-08-22T07:39:40.709Z,61.68
2022-08-22T07:40:40.578Z,61.65
2022-08-22T07:41:40.621Z,61.45
2022-08-22T07:42:41.869Z,61.15
2022-08-22T07:43:40.601Z,61.45
2022-08-22T07:44:40.580Z,61.55
2022-08-22T07:45:40.673Z,61.82
2022-08-22T07:46:40.573Z,60.89
2022-08-22T07:47:42.409Z,60.66
2022-08-22T07:48:59.291Z,60.46
2022-08-22T07:49:49.614Z,59.86
2022-08-22T07:50:41.511Z,59.97
2022-08-22T07:51:40.535Z,59.74
2022-08-22T07:52:40.455Z,59.74
2022-08-22T07:53:40.587Z,59.70
2022-08-22T07:54:40.444Z,58.68
2022-08-22T07:55:48.381Z,58.28
2022-08-22T07:56:41.441Z,57.95
2022-08-22T07:57:40.424Z,57.46
2022-08-22T07:58:40.377Z,58.06
2022-08-22T07:59:40.390Z,57.26
2022-08-22T08:00:40.389Z,57.03
2022-08-22T08:01:40.401Z,56.13
2022-08-22T08:02:40.361Z,57.23
2022-08-22T08:03:40.439Z,57.13
2022-08-22T08:04:40.766Z,56.53
2022-08-22T08:05:41.374Z,56.63
2022-08-22T08:06:40.360Z,56.83
2022-08-22T08:07:40.323Z,56.53
2022-08-22T08:08:40.270Z,56.43
2022-08-22T08:09:40.274Z,56.13
2022-08-22T08:10:40.275Z,56.26
2022-08-22T08:11:40.247Z,56.46
2022-08-22T08:12:40.266Z,56.26
2022-08-22T08:13:40.250Z,57.35
2022-08-22T08:14:40.253Z,56.36
2022-08-22T08:15:40.224Z,57.15
2022-08-22T08:16:40.195Z,56.68
2022-08-22T08:17:40.214Z,56.76
2022-08-22T08:18:40.168Z,57.65
2022-08-22T08:19:40.202Z,57.35
2022-08-22T08:20:40.136Z,56.59
2022-08-22T08:21:40.154Z,57.56
2022-08-22T08:22:40.105Z,56.76
2022-08-22T08:23:40.144Z,56.85
2022-08-22T08:24:42.734Z,56.16
2022-08-22T08:25:40.093Z,56.16
2022-08-22T08:26:40.089Z,57.06
2022-08-22T08:27:40.085Z,56.76
2022-08-22T08:28:40.085Z,55.46
2022-08-22T08:29:40.057Z,56.36
2022-08-22T08:30:40.054Z,56.85
2022-08-22T08:31:43.354Z,56.46
2022-08-22T08:32:41.005Z,56.23
2022-08-22T08:33:40.015Z,55.83
2022-08-22T08:34:39.988Z,55.43
2022-08-22T08:35:42.374Z,55.31
2022-08-22T08:36:40.990Z,55.28
2022-08-22T08:37:39.958Z,54.19
2022-08-22T08:38:40.058Z,54.16
2022-08-22T08:39:39.962Z,54.16
2022-08-22T08:40:39.968Z,52.54
2022-08-22T08:41:39.920Z,52.62
2022-08-22T08:42:40.657Z,52.51
2022-08-22T08:43:39.942Z,52.89
2022-08-22T08:44:39.897Z,51.82
2022-08-22T08:45:39.873Z,51.82
2022-08-22T08:46:39.863Z,52.12
2022-08-22T08:47:39.957Z,52.32
2022-08-22T08:48:39.897Z,52.54
2022-08-22T08:49:42.915Z,51.84
2022-08-22T08:50:39.812Z,51.84
2022-08-22T08:51:39.816Z,51.45
2022-08-22T08:52:40.792Z,52.07
2022-08-22T08:53:42.776Z,52.57
2022-08-22T08:54:39.788Z,52.47
2022-08-22T08:55:39.780Z,53.66
2022-08-22T08:56:39.752Z,52.17
2022-08-22T08:57:40.780Z,52.64
2022-08-22T08:58:39.736Z,52.24
2022-08-22T08:59:42.423Z,51.75
2022-08-22T09:00:40.293Z,52.04
2022-08-22T09:01:39.767Z,52.97
2022-08-22T09:02:42.632Z,52.27
2022-08-22T09:03:40.166Z,52.24
2022-08-22T09:04:39.665Z,54.13
2022-08-22T09:05:39.677Z,52.64
2022-08-22T09:06:42.492Z,52.34
2022-08-22T09:07:39.628Z,52.02
2022-08-22T09:08:39.617Z,51.72
2022-08-22T09:09:40.066Z,53.11
2022-08-22T09:10:39.748Z,51.92
2022-08-22T09:11:39.748Z,52.09
2022-08-22T09:12:52.374Z,51.40
2022-08-22T09:13:40.888Z,51.20
2022-08-22T09:14:40.829Z,51.30
2022-08-22T09:15:42.265Z,52.00
2022-08-22T09:16:46.252Z,52.39
2022-08-22T09:17:41.970Z,52.07
2022-08-22T09:18:40.413Z,52.26
2022-08-22T09:19:42.508Z,52.07
2022-08-22T09:20:39.548Z,51.60
2022-08-22T09:21:39.533Z,51.22
2022-08-22T09:22:50.063Z,52.00
2022-08-22T09:23:40.518Z,51.47
2022-08-22T09:24:39.506Z,51.37
2022-08-22T09:25:40.530Z,51.07
2022-08-22T09:26:39.641Z,51.17
2022-08-22T09:27:40.961Z,51.89
2022-08-22T09:28:39.593Z,50.68
2022-08-22T09:29:55.135Z,50.95
2022-08-22T09:30:40.466Z,50.85
2022-08-22T09:31:51.467Z,51.03
2022-08-22T09:32:40.393Z,49.74
2022-08-22T09:33:39.583Z,51.15
2022-08-22T09:34:39.490Z,48.65
2022-08-22T09:35:39.386Z,49.04
2022-08-22T09:36:39.538Z,49.41
2022-08-22T09:37:39.389Z,48.84
2022-08-22T09:38:39.418Z,48.86
2022-08-22T09:39:40.466Z,49.08
2022-08-22T09:40:39.389Z,49.38
2022-08-22T09:41:39.650Z,50.18
2022-08-22T09:42:39.360Z,49.49
2022-08-22T09:43:45.183Z,49.78
2022-08-22T09:44:40.007Z,50.16
2022-08-22T09:45:39.823Z,49.76
2022-08-22T09:46:40.509Z,49.86
2022-08-22T09:47:40.236Z,49.16
2022-08-22T09:48:39.563Z,49.74
2022-08-22T09:49:39.999Z,48.84
2022-08-22T09:50:41.808Z,48.54
2022-08-22T09:51:39.951Z,49.11
2022-08-22T09:52:39.717Z,48.82
2022-08-22T09:53:42.212Z,47.83
2022-08-22T09:54:39.445Z,48.32
2022-08-22T09:55:39.155Z,48.13
2022-08-22T09:56:39.916Z,48.32
2022-08-22T09:58:11.324Z,48.42
2022-08-22T09:59:12.092Z,49.02
2022-08-22T10:00:12.116Z,48.02
2022-08-22T10:01:12.188Z,48.84
2022-08-22T10:02:15.549Z,48.82
2022-08-22T10:03:12.208Z,49.14
2022-08-22T10:04:12.032Z,48.92
2022-08-22T10:05:12.136Z,48.72
2022-08-22T10:06:12.736Z,47.63
2022-08-22T10:07:12.329Z,48.80
2022-08-22T10:08:12.048Z,49.49
2022-08-22T10:09:13.581Z,49.46
2022-08-22T10:10:12.168Z,48.05
2022-08-22T10:11:12.384Z,47.26
2022-08-22T10:12:12.382Z,45.36
2022-08-22T10:13:11.994Z,43.89
2022-08-22T10:14:11.964Z,44.89
2022-08-22T10:15:11.961Z,44.68
2022-08-22T10:16:11.906Z,45.79
2022-08-22T10:17:11.976Z,46.91
2022-08-22T10:18:11.885Z,46.42
2022-08-22T10:19:12.090Z,45.10
2022-08-22T10:20:11.885Z,44.49
2022-08-22T10:21:11.985Z,43.30
2022-08-22T10:22:11.860Z,44.96
2022-08-22T10:23:12.049Z,44.07
2022-08-22T10:24:11.909Z,43.06
2022-08-22T10:25:11.885Z,43.16
2022-08-22T10:26:11.850Z,43.75
2022-08-22T10:27:12.849Z,43.85
2022-08-22T10:28:11.854Z,45.14
2022-08-22T10:29:11.785Z,46.23
2022-08-22T10:30:13.330Z,44.82
2022-08-22T10:31:11.746Z,41.93
2022-08-22T10:32:13.963Z,42.32
2022-08-22T10:33:12.202Z,40.05
2022-08-22T10:34:11.802Z,39.85
2022-08-22T10:35:11.738Z,40.96
2022-08-22T10:36:12.226Z,40.96
2022-08-22T10:37:11.742Z,40.78
2022-08-22T10:38:12.421Z,39.89
2022-08-22T10:39:12.030Z,38.62
2022-08-22T10:40:11.703Z,39.12
2022-08-22T10:41:11.689Z,40.19
2022-08-22T10:42:11.638Z,40.17
2022-08-22T10:43:11.599Z,40.05
2022-08-22T10:44:11.721Z,40.74
2022-08-22T10:45:11.708Z,40.66
2022-08-22T10:46:12.350Z,40.74
2022-08-22T10:47:11.631Z,40.74
2022-08-22T10:48:11.556Z,39.36
2022-08-22T10:49:14.324Z,39.06
2022-08-22T10:50:12.565Z,40.25
2022-08-22T10:51:11.602Z,40.45
2022-08-22T10:52:15.673Z,40.82
2022-08-22T10:53:12.569Z,40.53
2022-08-22T10:54:11.537Z,40.92
2022-08-22T10:55:11.557Z,40.62
2022-08-22T10:56:11.576Z,40.13
2022-08-22T10:57:11.608Z,40.90
2022-08-22T10:58:12.524Z,41.10
2022-08-22T10:59:11.424Z,40.72
2022-08-22T11:00:11.644Z,42.32
2022-08-22T11:01:38.170Z,40.74
2022-08-22T11:02:12.421Z,41.10
2022-08-22T11:03:15.156Z,41.20
2022-08-22T11:04:12.402Z,39.89
2022-08-22T11:06:33.793Z,39.70
2022-08-22T11:06:35.326Z,40.09
2022-08-22T11:07:37.026Z,39.18
2022-08-22T11:08:35.916Z,40.35
2022-08-22T11:09:37.097Z,40.35
2022-08-22T11:10:38.569Z,39.58
2022-08-22T11:11:35.307Z,38.20
2022-08-22T11:12:35.530Z,38.39
2022-08-22T11:13:35.264Z,38.02
2022-08-22T11:14:36.174Z,37.92
2022-08-22T11:15:35.659Z,38.00
2022-08-22T11:16:36.695Z,36.99
2022-08-22T11:17:41.682Z,37.41
2022-08-22T11:18:37.289Z,37.90
2022-08-22T11:19:35.156Z,37.43
2022-08-22T11:20:35.306Z,38.20
2022-08-22T11:21:35.235Z,38.89
2022-08-22T11:22:35.157Z,39.56
2022-08-22T11:23:35.211Z,37.96
2022-08-22T11:24:46.598Z,36.78
2022-08-22T11:25:39.044Z,38.04
2022-08-22T11:26:47.350Z,35.76
2022-08-22T11:27:39.904Z,35.48
2022-08-22T11:28:35.133Z,35.77
2022-08-22T11:29:35.143Z,35.66
2022-08-22T11:30:36.314Z,35.84
2022-08-22T11:31:36.544Z,33.87
2022-08-22T11:32:35.093Z,34.54
2022-08-22T11:33:46.599Z,35.11
2022-08-22T11:34:36.082Z,33.72
2022-08-22T11:35:35.101Z,33.72
2022-08-22T11:36:34.965Z,34.03
2022-08-22T11:37:43.310Z,33.44
2022-08-22T11:38:36.263Z,33.62
2022-08-22T11:39:35.022Z,33.41
2022-08-22T11:40:35.007Z,33.59
2022-08-22T11:41:34.911Z,33.39
2022-08-22T11:42:34.970Z,33.67
2022-08-22T11:43:37.043Z,32.57
2022-08-22T11:44:43.057Z,33.08
2022-08-22T11:45:37.266Z,33.31
2022-08-22T11:46:35.643Z,33.61
2022-08-22T11:47:35.615Z,33.70
2022-08-22T11:48:36.866Z,33.89
2022-08-22T11:50:01.743Z,33.70
2022-08-22T11:50:37.269Z,33.69
2022-08-22T11:51:34.841Z,34.08
2022-08-22T11:52:35.646Z,34.97
2022-08-22T11:53:36.631Z,33.29
2022-08-22T11:54:36.067Z,33.70
2022-08-22T11:55:34.866Z,33.89
2022-08-22T11:56:35.036Z,33.48
2022-08-22T11:57:34.903Z,33.67
2022-08-22T11:58:34.820Z,33.75
2022-08-22T11:59:40.105Z,32.09
2022-08-22T12:00:35.743Z,33.18
2022-08-22T12:01:34.727Z,33.69
2022-08-22T12:02:34.771Z,32.72
2022-08-22T12:03:35.472Z,32.45
2022-08-22T12:04:34.742Z,33.74
2022-08-22T12:05:34.736Z,34.15
2022-08-22T12:06:35.008Z,34.28
2022-08-22T12:07:34.719Z,34.66
2022-08-22T12:08:34.727Z,34.95
2022-08-22T12:09:34.931Z,35.03
2022-08-22T12:10:34.883Z,34.80
2022-08-22T12:11:34.888Z,33.91
2022-08-22T12:12:34.663Z,34.28
2022-08-22T12:13:35.133Z,33.49
2022-08-22T12:14:34.563Z,33.20
2022-08-22T12:15:35.263Z,32.82
2022-08-22T12:16:34.612Z,33.43
2022-08-22T12:17:55.421Z,34.51
2022-08-22T12:18:35.595Z,33.80
2022-08-22T12:19:34.616Z,33.59
2022-08-22T12:20:34.520Z,33.20
2022-08-22T12:21:36.796Z,32.90
2022-08-22T12:22:34.504Z,33.12
2022-08-22T12:23:43.502Z,34.84
2022-08-22T12:24:35.468Z,34.95
2022-08-22T12:25:34.500Z,35.17
2022-08-22T12:26:34.476Z,35.86
2022-08-22T12:27:34.517Z,35.27
2022-08-22T12:28:34.481Z,35.05
2022-08-22T12:29:44.594Z,34.46
2022-08-22T12:30:35.968Z,35.15
2022-08-22T12:31:34.561Z,34.44
2022-08-22T12:32:34.484Z,35.11
2022-08-22T12:33:34.514Z,35.02
2022-08-22T12:34:34.382Z,33.54
2022-08-22T12:35:34.390Z,33.75
2022-08-22T12:36:34.451Z,34.95
2022-08-22T12:37:34.424Z,34.95
2022-08-22T12:38:37.983Z,36.04
2022-08-22T12:39:35.347Z,35.51
2022-08-22T12:40:36.515Z,35.39
2022-08-22T12:41:34.929Z,35.20